.
WxDataArchive / Data Records for 2013-07-31
2013-07-30 July 2013 2013-08-01

Data Records for Wednesday, 31 July 2013

Time	Temp	Chill	HIndex	Humid	Dewpt	 Wind 	HiWind	WindDir	Rain 	Barom 
-----	----	-----	------	-----	-----	------	------	-------	-----	----- 
00:00	66.6	66.6	66.6	81	60.6	0	0	---	0.00	30.085 
00:05	66.6	66.6	66.6	81	60.6	0	0	---	0.00	30.085 
00:10	66.6	66.6	66.6	81	60.6	0	0	---	0.00	30.085 
00:15	66.6	66.6	66.6	82	60.9	0	0	---	0.00	30.080 
00:20	66.8	66.8	66.8	81	60.8	0	0	---	0.00	30.080 
00:25	66.9	66.9	66.9	81	60.9	0	0	---	0.00	30.080 
00:30	66.9	66.9	66.9	81	60.9	0	0	---	0.00	30.079 
00:35	66.9	66.9	66.9	81	60.9	0	0	---	0.00	30.079 
00:40	66.9	66.9	66.9	81	60.9	0	0	---	0.00	30.079 
00:45	66.9	66.9	66.9	81	60.9	0	0	---	0.00	30.079 
00:50	66.8	66.8	66.8	81	60.8	0	0	---	0.00	30.079 
00:55	66.6	66.6	66.6	81	60.6	0	0	---	0.00	30.079 
01:00	66.4	66.4	66.4	82	60.7	0	0	---	0.00	30.080 
01:05	66.4	66.4	66.4	82	60.7	0	0	---	0.00	30.080 
01:10	66.3	66.3	66.3	83	61.0	0	0	---	0.00	30.080 
01:15	66.1	66.1	66.1	83	60.8	0	0	---	0.00	30.078 
01:20	66.0	66.0	66.0	83	60.7	0	0	---	0.00	30.078 
01:25	65.8	65.8	65.8	84	60.8	0	0	---	0.00	30.078 
01:30	65.6	65.6	65.6	84	60.6	0	0	---	0.00	30.079 
01:35	65.5	65.5	65.5	84	60.5	0	0	---	0.00	30.079 
01:40	65.3	65.3	65.3	84	60.3	0	0	---	0.00	30.079 
01:45	65.3	65.3	65.3	84	60.3	0	0	---	0.00	30.080 
01:50	65.3	65.3	65.3	85	60.7	0	0	---	0.00	30.080 
01:55	65.3	65.3	65.3	85	60.7	0	0	---	0.00	30.080 
02:00	65.3	65.3	65.3	86	61.0	0	0	---	0.00	30.076 
02:05	65.3	65.3	65.3	86	61.0	0	0	---	0.00	30.076 
02:10	65.3	65.3	65.3	86	61.0	0	0	---	0.00	30.076 
02:15	65.5	65.5	65.5	86	61.2	0	0	---	0.00	30.074 
02:20	65.8	65.8	65.8	85	61.2	0	0	---	0.00	30.074 
02:25	66.0	66.0	66.0	85	61.4	0	0	---	0.00	30.074 
02:30	66.3	66.3	66.3	84	61.3	0	0	---	0.00	30.064 
02:35	66.4	66.4	66.4	84	61.4	0	1	22	0.00	30.064 
02:40	66.6	66.6	66.6	84	61.6	0	1	22	0.00	30.064 
02:45	66.6	66.6	66.6	84	61.6	0	1	22	0.00	30.063 
02:50	66.6	66.6	66.6	83	61.3	0	1	22	0.00	30.063 
02:55	66.6	66.6	66.6	83	61.3	0	0	---	0.00	30.063 
03:00	66.6	66.6	66.6	83	61.3	0	0	---	0.00	30.062 
03:05	66.6	66.6	66.6	83	61.3	0	0	---	0.00	30.062 
03:10	66.6	66.6	66.6	84	61.6	0	0	---	0.00	30.062 
03:15	66.6	66.6	66.6	84	61.6	0	0	---	0.00	30.059 
03:20	66.6	66.6	66.6	84	61.6	0	0	---	0.00	30.059 
03:25	66.6	66.6	66.6	84	61.6	0	0	---	0.00	30.059 
03:30	66.6	66.6	66.6	84	61.6	0	0	---	0.00	30.055 
03:35	66.6	66.6	66.6	84	61.6	0	0	---	0.00	30.055 
03:40	66.8	66.8	66.8	84	61.8	0	0	---	0.00	30.055 
03:45	66.8	66.8	66.8	84	61.8	0	0	---	0.00	30.053 
03:50	66.8	66.8	66.8	83	61.5	0	0	---	0.00	30.053 
03:55	66.8	66.8	66.8	83	61.5	0	0	---	0.00	30.053 
04:00	66.8	66.8	66.8	83	61.5	0	0	---	0.00	30.049 
04:05	66.8	66.8	66.8	83	61.5	0	0	---	0.00	30.049 
04:10	66.8	66.8	66.8	83	61.5	0	0	---	0.00	30.049 
04:15	66.8	66.8	66.8	83	61.5	0	0	---	0.00	30.048 
04:20	66.8	66.8	66.8	83	61.5	0	0	---	0.00	30.048 
04:25	66.6	66.6	66.6	83	61.3	0	0	---	0.00	30.048 
04:30	66.6	66.6	66.6	83	61.3	0	0	---	0.00	30.051 
04:35	66.6	66.6	66.6	83	61.3	0	0	---	0.00	30.051 
04:40	66.4	66.4	66.4	83	61.1	0	0	---	0.00	30.051 
04:45	66.4	66.4	66.4	83	61.1	0	0	---	0.00	30.046 
04:50	66.4	66.4	66.4	83	61.1	0	0	---	0.00	30.046 
04:55	66.4	66.4	66.4	83	61.1	0	0	---	0.00	30.046 
05:00	66.4	66.4	66.4	83	61.1	0	0	---	0.00	30.045 
05:05	66.4	66.4	66.4	84	61.4	0	0	---	0.00	30.045 
05:10	66.4	66.4	66.4	84	61.4	0	0	---	0.00	30.045 
05:15	66.4	66.4	66.4	84	61.4	0	0	---	0.00	30.047 
05:20	66.4	66.4	66.4	84	61.4	0	0	---	0.00	30.047 
05:25	66.4	66.4	66.4	84	61.4	0	0	---	0.00	30.047 
05:30	66.4	66.4	66.4	84	61.4	0	0	---	0.00	30.046 
05:35	66.4	66.4	66.4	84	61.4	0	1	22	0.00	30.046 
05:40	66.4	66.4	66.4	84	61.4	0	0	---	0.00	30.046 
05:45	66.4	66.4	66.4	84	61.4	0	0	---	0.00	30.047 
05:50	66.4	66.4	66.4	84	61.4	0	0	---	0.00	30.047 
05:55	66.4	66.4	66.4	84	61.4	0	0	---	0.00	30.047 
06:00	66.4	66.4	66.4	84	61.4	0	0	---	0.00	30.047 
06:05	66.4	66.4	66.4	84	61.4	0	0	---	0.00	30.047 
06:10	66.4	66.4	66.4	84	61.4	0	0	---	0.00	30.047 
06:15	66.4	66.4	66.4	84	61.4	0	0	---	0.00	30.048 
06:20	66.6	66.6	66.6	84	61.6	0	0	---	0.00	30.048 
06:25	66.6	66.6	66.6	84	61.6	0	0	---	0.00	30.048 
06:30	66.6	66.6	66.6	84	61.6	0	0	---	0.00	30.044 
06:35	66.6	66.6	66.6	84	61.6	0	0	---	0.00	30.044 
06:40	66.6	66.6	66.6	84	61.6	0	0	---	0.00	30.044 
06:45	66.6	66.6	66.6	84	61.6	0	0	---	0.00	30.044 
06:50	66.6	66.6	66.6	84	61.6	0	0	---	0.00	30.044 
06:55	66.6	66.6	66.6	84	61.6	0	0	---	0.00	30.044 
07:00	66.8	66.8	66.8	84	61.8	0	0	---	0.00	30.046 
07:05	66.8	66.8	66.8	84	61.8	0	0	---	0.00	30.046 
07:10	66.8	66.8	66.8	84	61.8	0	0	---	0.00	30.046 
07:15	66.9	66.9	66.9	84	61.9	0	0	---	0.00	30.049 
07:20	66.9	66.9	66.9	84	61.9	0	0	---	0.00	30.049 
07:25	66.9	66.9	66.9	84	61.9	0	0	---	0.00	30.049 
07:30	66.9	66.9	66.9	84	61.9	0	0	---	0.00	30.046 
07:35	67.1	67.1	67.1	84	62.1	0	1	22	0.00	30.046 
07:40	67.3	67.3	67.3	84	62.3	0	0	---	0.00	30.046 
07:45	67.3	67.3	67.3	84	62.3	0	1	22	0.00	30.045 
07:50	67.4	67.4	67.4	84	62.4	0	1	22	0.00	30.045 
07:55	67.6	67.6	67.6	84	62.6	0	1	22	0.00	30.045 
08:00	67.6	67.6	67.6	84	62.6	0	0	---	0.00	30.036 
08:05	67.8	67.8	67.8	83	62.4	0	1	22	0.00	30.036 
08:10	67.9	67.9	67.9	83	62.5	0	1	22	0.00	30.036 
08:15	67.9	67.9	67.9	83	62.5	0	1	22	0.00	30.036 
08:20	68.1	68.1	68.1	83	62.7	0	0	---	0.00	30.036 
08:25	68.1	68.1	68.1	83	62.7	0	0	---	0.00	30.036 
08:30	68.1	68.1	68.1	83	62.7	0	1	22	0.00	30.045 
08:35	68.1	68.1	68.1	83	62.7	0	0	---	0.00	30.045 
08:40	68.1	68.1	68.1	83	62.7	0	1	22	0.00	30.045 
08:45	68.3	68.3	68.3	83	62.9	0	0	---	0.00	30.042 
08:50	68.4	68.4	68.4	83	63.0	0	0	---	0.00	30.042 
08:55	68.6	68.6	68.6	83	63.2	0	0	---	0.00	30.042 
09:00	68.6	68.6	68.6	83	63.2	0	0	---	0.00	30.041 
09:05	68.8	68.8	68.8	83	63.4	0	0	---	0.00	30.041 
09:10	68.9	68.9	68.9	82	63.2	0	2	22	0.00	30.041 
09:15	68.9	68.9	68.9	82	63.2	0	2	22	0.00	30.034 
09:20	68.9	68.9	68.9	81	62.8	0	1	22	0.00	30.034 
09:25	69.1	69.1	69.1	81	63.0	0	2	22	0.00	30.034 
09:30	69.3	69.3	69.3	82	63.6	0	2	22	0.00	30.033 
09:35	69.4	69.4	69.4	82	63.7	0	1	22	0.00	30.033 
09:40	69.6	69.6	69.6	82	63.9	0	2	22	0.00	30.033 
09:45	69.8	69.8	69.8	82	64.0	0	1	22	0.00	30.030 
09:50	70.1	70.1	70.1	82	64.3	0	1	22	0.00	30.030 
09:55	70.3	70.3	70.3	81	64.2	0	1	22	0.00	30.030 
10:00	70.3	70.3	70.3	81	64.2	0	2	22	0.00	30.031 
10:05	70.4	70.4	70.4	80	63.9	0	3	45	0.00	30.031 
10:10	70.4	70.4	70.4	79	63.6	1	4	90	0.00	30.031 
10:15	70.4	70.4	70.4	79	63.6	1	3	90	0.00	30.027 
10:20	70.6	70.6	70.6	80	64.1	0	2	90	0.00	30.027 
10:25	70.8	70.8	70.8	80	64.3	0	1	90	0.00	30.027 
10:30	70.9	70.9	70.9	80	64.4	0	3	90	0.00	30.026 
10:35	70.9	70.9	70.9	80	64.4	0	1	90	0.00	30.026 
10:40	70.9	70.9	70.9	80	64.4	0	2	90	0.00	30.026 
10:45	71.3	71.3	71.3	80	64.8	0	2	90	0.00	30.021 
10:50	71.5	71.5	71.5	79	64.6	0	2	90	0.00	30.021 
10:55	71.8	71.8	71.8	78	64.6	0	3	90	0.00	30.021 
11:00	72.0	72.0	72.0	78	64.8	0	2	202	0.00	30.021 
11:05	72.1	72.1	72.1	77	64.5	0	3	112	0.00	30.021 
11:10	72.1	72.1	72.1	77	64.5	0	2	112	0.00	30.021 
11:15	72.0	72.0	72.0	78	64.8	0	1	112	0.00	30.019 
11:20	72.0	72.0	72.0	79	65.1	0	1	112	0.00	30.019 
11:25	71.8	71.8	71.8	79	64.9	0	1	112	0.00	30.019 
11:30	71.6	71.6	71.6	80	65.1	0	3	112	0.00	30.020 
11:35	71.8	71.8	71.8	80	65.3	0	2	112	0.00	30.020 
11:40	72.0	72.0	72.0	79	65.1	1	3	90	0.00	30.020 
11:45	72.0	72.0	72.0	79	65.1	0	3	90	0.00	30.018 
11:50	72.0	72.0	72.0	78	64.8	0	3	90	0.00	30.018 
11:55	72.1	72.1	72.1	78	64.8	0	3	90	0.00	30.018 
12:00	72.3	72.3	72.3	78	65.0	0	3	90	0.00	30.014 
12:05	72.3	72.3	72.3	79	65.4	1	4	90	0.00	30.014 
12:10	72.3	72.3	72.3	79	65.4	1	4	90	0.00	30.014 
12:15	72.1	72.1	72.1	80	65.6	0	2	90	0.00	30.010 
12:20	72.1	72.1	72.1	81	65.9	0	2	90	0.00	30.010 
12:25	72.0	72.0	72.0	82	66.2	0	2	90	0.00	30.010 
12:30	71.8	71.8	71.8	82	66.0	0	2	90	0.00	30.003 
12:35	72.1	72.1	72.1	83	66.6	0	1	90	0.00	30.003 
12:40	72.3	72.3	72.3	81	66.1	1	3	90	0.00	30.003 
12:45	72.5	72.5	72.5	81	66.3	1	3	45	0.00	29.999 
12:50	73.0	73.0	73.0	79	66.1	0	2	45	0.00	29.999 
12:55	73.2	73.2	73.2	79	66.3	0	2	45	0.00	29.999 
13:00	72.7	72.7	72.7	79	65.8	1	3	315	0.00	29.996 
13:05	72.7	72.7	72.7	80	66.2	0	2	315	0.00	29.996 
13:10	72.8	72.8	72.8	80	66.3	0	3	315	0.00	29.996 
13:15	72.7	72.7	72.7	79	65.8	0	3	315	0.00	29.991 
13:20	72.5	72.5	72.5	80	66.0	0	3	22	0.00	29.991 
13:25	72.3	72.3	72.3	80	65.8	0	2	45	0.00	29.991 
13:30	72.3	72.3	72.3	80	65.8	1	3	0	0.00	29.991 
13:35	72.1	72.1	72.1	80	65.6	0	2	22	0.00	29.991 
13:40	72.0	72.0	72.0	80	65.5	0	2	22	0.00	29.991 
13:45	72.1	72.1	72.1	81	65.9	0	1	22	0.00	29.989 
13:50	72.0	72.0	72.0	80	65.5	0	2	22	0.00	29.989 
13:55	71.8	71.8	71.8	81	65.6	0	2	22	0.00	29.989 
14:00	71.6	71.6	71.6	81	65.4	0	3	270	0.00	29.986 
14:05	71.6	71.6	71.6	81	65.4	0	1	270	0.00	29.986 
14:10	71.5	71.5	71.5	81	65.4	1	3	90	0.00	29.986 
14:15	71.5	71.5	71.5	81	65.4	0	1	338	0.00	29.982 
14:20	71.3	71.3	71.3	81	65.2	0	3	68	0.00	29.982 
14:25	71.1	71.1	71.1	82	65.3	0	2	68	0.00	29.982 
14:30	70.9	70.9	70.9	82	65.1	1	3	22	0.00	29.978 
14:35	70.8	70.8	70.8	83	65.4	0	2	112	0.00	29.978 
14:40	70.6	70.6	70.6	83	65.2	0	1	112	0.00	29.978 
14:45	70.8	70.8	70.8	84	65.7	0	1	112	0.00	29.970 
14:50	70.9	70.9	70.9	83	65.5	0	3	112	0.00	29.970 
14:55	70.8	70.8	70.8	83	65.4	0	3	112	0.00	29.970 
15:00	70.9	70.9	70.9	83	65.5	0	2	135	0.00	29.971 
15:05	70.9	70.9	70.9	84	65.8	0	1	135	0.00	29.971 
15:10	70.9	70.9	70.9	84	65.8	0	1	135	0.00	29.971 
15:15	70.9	70.9	70.9	84	65.8	0	3	135	0.00	29.965 
15:20	70.8	70.8	70.8	84	65.7	1	3	248	0.00	29.965 
15:25	70.6	70.6	70.6	85	65.9	0	1	248	0.00	29.965 
15:30	70.4	70.4	70.4	85	65.7	0	2	248	0.00	29.966 
15:35	70.4	70.4	70.4	85	65.7	0	2	248	0.00	29.966 
15:40	70.4	70.4	70.4	85	65.7	0	1	248	0.00	29.966 
15:45	70.4	70.4	70.4	86	66.0	0	1	248	0.00	29.967 
15:50	70.3	70.3	70.3	86	65.9	0	1	248	0.00	29.967 
15:55	70.3	70.3	70.3	87	66.2	0	0	---	0.00	29.967 
16:00	70.1	70.1	70.1	87	66.0	0	0	---	0.00	29.959 
16:05	70.1	70.1	70.1	88	66.4	0	1	248	0.00	29.959 
16:10	70.3	70.3	70.3	88	66.6	0	0	---	0.00	29.959 
16:15	70.3	70.3	70.3	88	66.6	0	1	248	0.00	29.957 
16:20	70.3	70.3	70.3	88	66.6	0	1	248	0.00	29.957 
16:25	70.1	70.1	70.1	88	66.4	0	1	248	0.00	29.957 
16:30	70.1	70.1	70.1	88	66.4	0	2	248	0.00	29.959 
16:35	69.8	69.8	69.8	88	66.1	0	2	248	0.00	29.959 
16:40	69.6	69.6	69.6	88	65.9	0	1	248	0.00	29.959 
16:45	69.6	69.6	69.6	89	66.2	0	0	---	0.00	29.956 
16:50	69.6	69.6	69.6	89	66.2	0	1	248	0.00	29.956 
16:55	69.8	69.8	69.8	88	66.1	0	1	248	0.00	29.956 
17:00	69.9	69.9	69.9	88	66.2	0	1	248	0.00	29.955 
17:05	69.9	69.9	69.9	88	66.2	0	2	248	0.00	29.955 
17:10	70.1	70.1	70.1	87	66.0	0	1	248	0.00	29.955 
17:15	70.3	70.3	70.3	86	65.9	0	1	248	0.00	29.945 
17:20	70.3	70.3	70.3	86	65.9	0	2	248	0.00	29.945 
17:25	70.4	70.4	70.4	85	65.7	0	2	248	0.00	29.945 
17:30	70.3	70.3	70.3	85	65.6	0	1	248	0.00	29.942 
17:35	70.3	70.3	70.3	86	65.9	0	1	248	0.00	29.942 
17:40	70.3	70.3	70.3	86	65.9	0	1	248	0.00	29.942 
17:45	70.3	70.3	70.3	86	65.9	0	2	248	0.00	29.941 
17:50	70.3	70.3	70.3	87	66.2	0	1	248	0.00	29.941 
17:55	70.3	70.3	70.3	87	66.2	0	2	248	0.00	29.941 
18:00	70.3	70.3	70.3	87	66.2	0	1	248	0.00	29.934 
18:05	70.4	70.4	70.4	87	66.3	0	2	248	0.00	29.934 
18:10	70.3	70.3	70.3	87	66.2	0	1	248	0.00	29.934 
18:15	70.3	70.3	70.3	87	66.2	0	1	248	0.00	29.933 
18:20	70.3	70.3	70.3	88	66.6	0	1	248	0.00	29.933 
18:25	70.3	70.3	70.3	88	66.6	0	1	248	0.00	29.933 
18:30	70.1	70.1	70.1	88	66.4	0	2	248	0.00	29.925 
18:35	70.1	70.1	70.1	88	66.4	0	1	248	0.00	29.925 
18:40	69.9	69.9	69.9	89	66.5	0	1	248	0.00	29.925 
18:45	69.9	69.9	69.9	89	66.5	0	1	248	0.00	29.922 
18:50	69.8	69.8	69.8	90	66.7	0	1	248	0.00	29.922 
18:55	69.6	69.6	69.6	90	66.5	0	0	---	0.00	29.922 
19:00	69.6	69.6	69.6	91	66.8	0	0	---	0.00	29.921 
19:05	69.4	69.4	69.4	91	66.7	0	0	---	0.00	29.921 
19:10	69.4	69.4	69.4	91	66.7	0	1	248	0.00	29.921 
19:15	69.6	69.6	69.6	91	66.8	0	1	248	0.00	29.917 
19:20	69.6	69.6	69.6	92	67.2	0	0	---	0.00	29.917 
19:25	69.6	69.6	69.6	92	67.2	0	0	---	0.00	29.917 
19:30	69.6	69.6	69.6	92	67.2	0	1	248	0.00	29.913 
19:35	69.6	69.6	69.6	92	67.2	0	1	248	0.00	29.913 
19:40	69.6	69.6	69.6	92	67.2	0	0	---	0.00	29.913 
19:45	69.4	69.4	69.4	92	67.0	0	0	---	0.00	29.913 
19:50	69.4	69.4	69.4	92	67.0	0	1	248	0.00	29.913 
19:55	69.4	69.4	69.4	92	67.0	0	1	248	0.00	29.913 
20:00	69.4	69.4	69.4	93	67.3	0	0	---	0.00	29.910 
20:05	69.4	69.4	69.4	93	67.3	0	0	---	0.00	29.910 
20:10	69.3	69.3	69.3	93	67.2	0	1	248	0.00	29.910 
20:15	69.3	69.3	69.3	93	67.2	0	0	---	0.00	29.909 
20:20	69.3	69.3	69.3	93	67.2	0	0	---	0.00	29.909 
20:25	69.4	69.4	69.4	93	67.3	0	0	---	0.00	29.909 
20:30	69.4	69.4	69.4	93	67.3	0	1	248	0.00	29.911 
20:35	69.3	69.3	69.3	93	67.2	0	1	248	0.00	29.911 
20:40	69.3	69.3	69.3	93	67.2	0	1	248	0.00	29.911 
20:45	69.3	69.3	69.3	93	67.2	0	2	248	0.00	29.911 
20:50	69.3	69.3	69.3	93	67.2	0	2	248	0.00	29.911 
20:55	69.3	69.3	69.3	93	67.2	0	1	248	0.00	29.911 
21:00	69.3	69.3	69.3	93	67.2	1	3	248	0.00	29.919 
21:05	69.4	69.4	69.4	93	67.3	0	1	248	0.00	29.919 
21:10	69.4	69.4	69.4	93	67.3	0	1	248	0.00	29.919 
21:15	69.4	69.4	69.4	92	67.0	0	2	248	0.00	29.918 
21:20	69.3	69.3	69.3	92	66.9	0	2	248	0.00	29.918 
21:25	69.4	69.4	69.4	92	67.0	0	1	248	0.00	29.918 
21:30	69.4	69.4	69.4	92	67.0	1	3	248	0.00	29.920 
21:35	69.4	69.4	69.4	92	67.0	0	1	248	0.00	29.920 
21:40	69.4	69.4	69.4	92	67.0	0	1	248	0.00	29.920 
21:45	69.4	69.4	69.4	92	67.0	0	1	248	0.00	29.922 
21:50	69.4	69.4	69.4	92	67.0	0	3	248	0.00	29.922 
21:55	69.4	69.4	69.4	92	67.0	0	2	248	0.00	29.922 
22:00	69.4	69.4	69.4	92	67.0	0	1	248	0.00	29.924 
22:05	69.4	69.4	69.4	92	67.0	0	0	---	0.00	29.924 
22:10	69.4	69.4	69.4	92	67.0	0	1	248	0.00	29.924 
22:15	69.4	69.4	69.4	92	67.0	0	1	248	0.00	29.926 
22:20	69.4	69.4	69.4	92	67.0	0	1	248	0.00	29.926 
22:25	69.3	69.3	69.3	92	66.9	1	3	248	0.00	29.926 
22:30	69.1	69.1	69.1	92	66.7	1	3	248	0.00	29.923 
22:35	69.1	69.1	69.1	92	66.7	1	4	248	0.00	29.923 
22:40	68.9	68.9	68.9	91	66.2	2	4	248	0.00	29.923 
22:45	68.9	68.9	68.9	91	66.2	1	3	248	0.00	29.922 
22:50	68.8	68.8	68.8	91	66.1	2	5	338	0.00	29.922 
22:55	68.8	68.8	68.8	90	65.7	0	2	338	0.00	29.922 
23:00	68.6	68.6	68.6	90	65.5	0	4	270	0.00	29.918 
23:05	68.4	68.4	68.4	90	65.3	1	3	270	0.00	29.918 
23:10	68.4	68.4	68.4	90	65.3	0	1	270	0.00	29.918 
23:15	68.3	68.3	68.3	90	65.2	0	2	270	0.00	29.913 
23:20	68.1	68.1	68.1	90	65.0	0	2	270	0.00	29.913 
23:25	67.9	67.9	67.9	90	64.9	0	1	270	0.00	29.913 
23:30	67.9	67.9	67.9	91	65.2	0	1	270	0.00	29.915 
23:35	67.8	67.8	67.8	91	65.1	0	2	270	0.00	29.915 
23:40	67.8	67.8	67.8	91	65.1	0	2	270	0.00	29.915 
23:45	67.8	67.8	67.8	91	65.1	1	2	270	0.00	29.921 
23:50	67.8	67.8	67.8	91	65.1	0	1	270	0.00	29.921 
23:55	67.8	67.8	67.8	91	65.1	1	2	270	0.00	29.921 

CoCoRaHS
IN-AL-39
A2 Web Hosting
Creative Commons License
GoDaddy
search engine by freefind advanced

loaded 2018-11-13 22:29:01 • last modified 2010-11-18 10:43:29
Privacy PolicyDisclaimer
• wx.awcolley.com is powered by PmWiki v.2002016 •
• all content (unless otherwise noted) © 2018 A W Colley